createdAt,value
2019-02-12T16:12:26.400Z,101235.67
2019-02-12T16:13:27.550Z,101249.34
2019-02-12T16:14:28.352Z,101248.37
2019-02-12T16:15:29.174Z,101260.13
2019-02-12T16:16:30.463Z,101256.19
2019-02-12T16:17:32.728Z,101262.77
2019-02-12T16:18:33.569Z,101272.33
2019-02-12T16:19:41.357Z,101266.38
2019-02-12T16:20:42.192Z,101274.30
2019-02-12T16:21:43.000Z,101279.22
2019-02-12T16:22:43.849Z,101281.05
2019-02-12T16:23:44.670Z,101282.74
2019-02-12T16:24:45.496Z,101292.41
2019-02-12T16:25:46.314Z,101286.03
2019-02-12T16:26:47.159Z,101300.08
2019-02-12T16:27:47.978Z,101299.18
2019-02-12T16:28:48.791Z,101306.48
2019-02-12T16:29:49.643Z,101313.27
2019-02-12T16:30:50.456Z,101313.80
2019-02-12T16:31:51.282Z,101314.14
2019-02-12T16:32:52.100Z,101305.43
2019-02-12T16:33:52.910Z,101327.77
2019-02-12T16:34:53.759Z,101314.91
2019-02-12T16:35:54.618Z,101312.75
2019-02-12T16:36:55.414Z,101323.05
2019-02-12T16:37:56.231Z,101328.28
2019-02-12T16:38:57.053Z,101331.18
2019-02-12T16:39:57.903Z,101327.53
2019-02-12T16:40:58.720Z,101331.38
2019-02-12T16:41:59.549Z,101332.92
2019-02-12T16:43:00.361Z,101331.77
2019-02-12T16:44:01.180Z,101333.89
2019-02-12T16:45:02.237Z,101337.92
2019-02-12T16:46:04.960Z,101334.52
2019-02-12T16:47:05.795Z,101336.27
2019-02-12T16:48:06.721Z,101345.96
2019-02-12T16:49:07.553Z,101349.81
2019-02-12T16:50:08.416Z,101352.37
2019-02-12T16:51:09.248Z,101356.63
2019-02-12T16:52:10.065Z,101359.72
2019-02-12T16:53:10.879Z,101355.48
2019-02-12T16:54:11.697Z,101364.69
2019-02-12T16:55:12.585Z,101361.31
2019-02-12T16:56:13.414Z,101369.77
2019-02-12T16:57:14.250Z,101360.91
2019-02-12T16:58:15.040Z,101372.27
2019-02-12T16:59:15.870Z,101370.77
2019-02-12T17:00:16.818Z,101373.52
2019-02-12T17:01:17.632Z,101367.12
2019-02-12T17:02:18.450Z,101375.02
2019-02-12T17:03:22.032Z,101373.98
2019-02-12T17:04:22.868Z,101379.06
2019-02-12T17:05:23.710Z,101375.68
2019-02-12T17:06:24.560Z,101378.78
2019-02-12T17:07:25.449Z,101393.59
2019-02-12T17:08:26.208Z,101394.20
2019-02-12T17:09:27.111Z,101382.84
2019-02-12T17:10:28.039Z,101396.19
2019-02-12T17:11:28.918Z,101393.75
2019-02-12T17:12:29.722Z,101393.26
2019-02-12T17:13:30.599Z,101393.86
2019-02-12T17:14:31.410Z,101393.14
2019-02-12T17:15:32.377Z,101397.80
2019-02-12T17:16:33.187Z,101402.30
2019-02-12T17:17:34.012Z,101398.61
2019-02-12T17:18:34.867Z,101397.91
2019-02-12T17:19:35.679Z,101404.63
2019-02-12T17:20:36.496Z,101397.62
2019-02-12T17:21:37.315Z,101404.66
2019-02-12T17:22:38.130Z,101411.78
2019-02-12T17:23:39.100Z,101412.00
2019-02-12T17:24:39.906Z,101412.97
2019-02-12T17:25:40.726Z,101411.39
2019-02-12T17:26:41.548Z,101414.17
2019-02-12T17:27:42.362Z,101428.95
2019-02-12T17:28:46.204Z,101413.83
2019-02-12T17:29:47.026Z,101426.47
2019-02-12T17:30:47.858Z,101431.02
2019-02-12T17:31:48.672Z,101425.85
2019-02-12T17:32:49.532Z,101424.83
2019-02-12T17:33:50.354Z,101431.38
2019-02-12T17:34:51.193Z,101425.69
2019-02-12T17:35:52.032Z,101432.23
2019-02-12T17:36:52.857Z,101432.78
2019-02-12T17:38:02.079Z,101424.71
2019-02-12T17:39:04.097Z,101435.17
2019-02-12T17:40:06.720Z,101434.52
2019-02-12T17:41:07.543Z,101439.95
2019-02-12T17:42:08.383Z,101447.08
2019-02-12T17:43:10.244Z,101444.94
2019-02-12T17:44:11.126Z,101446.77
2019-02-12T17:45:12.639Z,101443.41
2019-02-12T17:46:13.456Z,101450.23
2019-02-12T17:47:14.271Z,101442.55
2019-02-12T17:48:34.370Z,101435.76
2019-02-12T17:49:35.190Z,101442.72
2019-02-12T17:50:36.006Z,101438.41
2019-02-12T17:51:36.818Z,101443.53
2019-02-12T17:52:37.641Z,101443.63
2019-02-12T17:53:38.500Z,101447.06
2019-02-12T17:59:45.146Z,101441.05
2019-02-12T18:00:45.971Z,101458.55
2019-02-12T18:01:46.786Z,101458.52
2019-02-12T18:02:47.602Z,101463.87
2019-02-12T18:04:27.691Z,101456.68
2019-02-12T18:05:28.507Z,101452.36
2019-02-12T18:06:29.328Z,101454.81
2019-02-12T18:07:30.143Z,101458.39
2019-02-12T18:08:30.951Z,101457.59
2019-02-12T18:09:31.900Z,101457.91
2019-02-12T18:10:32.728Z,101473.55
2019-02-12T18:11:33.526Z,101466.19
2019-02-12T18:12:34.356Z,101471.92
2019-02-12T18:13:35.180Z,101469.93
2019-02-12T18:14:36.007Z,101464.12
2019-02-12T18:15:36.840Z,101461.99
2019-02-12T18:16:37.669Z,101458.44
2019-02-12T18:17:38.476Z,101464.45
2019-02-12T18:18:39.295Z,101462.42
2019-02-12T18:19:40.131Z,101458.32
2019-02-12T18:20:40.958Z,101462.52
2019-02-12T18:21:41.791Z,101462.23
2019-02-12T18:22:42.605Z,101472.74
2019-02-12T18:23:43.448Z,101472.95
2019-02-12T18:24:44.267Z,101471.22
2019-02-12T18:25:45.190Z,101468.42
2019-02-12T18:26:46.023Z,101473.41
2019-02-12T18:27:46.843Z,101477.31
2019-02-12T18:28:47.998Z,101479.84
2019-02-12T18:29:48.746Z,101472.65
2019-02-12T18:30:49.566Z,101473.76
2019-02-12T18:31:50.387Z,101479.95
2019-02-12T18:32:51.217Z,101483.94
2019-02-12T18:33:52.108Z,101481.85
2019-02-12T18:34:52.921Z,101482.97
2019-02-12T18:35:53.748Z,101477.34
2019-02-12T18:36:54.563Z,101474.94
2019-02-12T18:38:01.946Z,101477.79
2019-02-12T18:39:03.872Z,101481.13
2019-02-12T18:40:06.596Z,101480.38
2019-02-12T18:41:07.427Z,101480.49
2019-02-12T18:42:08.250Z,101483.42
2019-02-12T18:43:09.067Z,101481.40
2019-02-12T18:44:09.923Z,101486.28
2019-02-12T18:45:15.316Z,101492.32
2019-02-12T18:46:16.131Z,101488.08
2019-02-12T18:47:16.949Z,101495.20
2019-02-12T18:48:17.802Z,101493.28
2019-02-12T18:49:18.599Z,101495.74
2019-02-12T18:50:19.468Z,101493.98
2019-02-12T18:51:20.288Z,101496.41
2019-02-12T18:52:21.107Z,101498.53
2019-02-12T18:53:21.924Z,101507.88
2019-02-12T18:54:22.748Z,101504.03
2019-02-12T18:55:23.603Z,101505.69
2019-02-12T18:56:26.328Z,101511.27
2019-02-12T18:57:27.400Z,101504.59
2019-02-12T18:58:28.210Z,101512.50
2019-02-12T18:59:29.031Z,101515.77
2019-02-12T19:00:29.862Z,101507.67
2019-02-12T19:01:30.684Z,101511.25
2019-02-12T19:02:31.645Z,101513.83
2019-02-12T19:03:32.710Z,101509.86
2019-02-12T19:04:33.635Z,101518.48
2019-02-12T19:05:34.467Z,101520.45
2019-02-12T19:06:35.302Z,101518.84
2019-02-12T19:07:36.121Z,101523.59
2019-02-12T19:08:37.097Z,101521.13
2019-02-12T19:09:37.908Z,101519.67
2019-02-12T19:10:38.716Z,101519.20
2019-02-12T19:11:48.435Z,101524.21
2019-02-12T19:12:42.142Z,101526.49
2019-02-12T19:13:42.958Z,101522.39
2019-02-12T19:14:43.790Z,101528.30
2019-02-12T19:15:44.607Z,101533.88
2019-02-12T19:16:45.471Z,101528.53
2019-02-12T19:17:48.340Z,101527.67
2019-02-12T19:18:49.450Z,101532.47
2019-02-12T19:19:50.197Z,101529.69
2019-02-12T19:20:51.010Z,101537.01
2019-02-12T19:21:51.880Z,101528.65
2019-02-12T19:22:52.706Z,101534.30
2019-02-12T19:23:53.611Z,101533.53
2019-02-12T19:24:54.439Z,101537.14
2019-02-12T19:25:55.259Z,101537.20
2019-02-12T19:26:56.129Z,101540.81
2019-02-12T19:27:56.951Z,101541.33
2019-02-12T19:28:57.759Z,101544.11
2019-02-12T19:29:58.595Z,101545.23
2019-02-12T19:30:59.404Z,101550.57
2019-02-12T19:32:00.266Z,101543.77
2019-02-12T19:33:01.080Z,101549.03
2019-02-12T19:34:01.955Z,101542.89
2019-02-12T19:35:04.179Z,101543.10
2019-02-12T19:36:05.007Z,101545.52
2019-02-12T19:37:05.834Z,101533.81
2019-02-12T19:38:06.733Z,101539.47
2019-02-12T19:39:07.639Z,101541.75
2019-02-12T19:40:09.171Z,101544.86
2019-02-12T19:41:09.989Z,101543.50
2019-02-12T19:42:10.813Z,101544.95
2019-02-12T19:43:11.656Z,101552.22
2019-02-12T19:44:12.499Z,101555.58
2019-02-12T19:45:14.318Z,101555.36
2019-02-12T19:46:15.248Z,101555.45
2019-02-12T19:47:16.076Z,101552.66
2019-02-12T19:48:16.989Z,101564.08
2019-02-12T19:49:18.013Z,101556.42
2019-02-12T19:50:18.848Z,101557.55
2019-02-12T19:51:19.696Z,101563.27
2019-02-12T19:52:20.517Z,101560.27
2019-02-12T19:53:21.382Z,101565.64
2019-02-12T19:54:22.196Z,101562.09
2019-02-12T19:55:23.015Z,101570.16
2019-02-12T19:56:23.827Z,101566.19
2019-02-12T19:57:24.647Z,101565.81
2019-02-12T19:58:25.503Z,101565.93
2019-02-12T19:59:26.335Z,101566.79
2019-02-12T20:00:27.161Z,101567.98
2019-02-12T20:01:27.971Z,101567.83
2019-02-12T20:02:28.783Z,101575.78
2019-02-12T20:03:30.152Z,101572.34
2019-02-12T20:04:31.043Z,101574.71
2019-02-12T20:05:31.979Z,101575.57
2019-02-12T20:06:32.839Z,101579.75
2019-02-12T20:07:33.660Z,101588.23
2019-02-12T20:08:34.518Z,101590.08
2019-02-12T20:09:35.324Z,101592.57
2019-02-12T20:10:36.139Z,101588.83
2019-02-12T20:11:36.955Z,101586.61
2019-02-12T20:12:37.769Z,101590.55
2019-02-12T20:13:38.632Z,101592.80
2019-02-12T20:14:39.453Z,101600.31
2019-02-12T20:15:40.259Z,101599.77
2019-02-12T20:16:41.071Z,101601.73
2019-02-12T20:17:41.891Z,101596.16
2019-02-12T20:18:42.721Z,101601.17
2019-02-12T20:19:45.571Z,101604.52
2019-02-12T20:20:46.471Z,101603.96
2019-02-12T20:21:47.343Z,101600.94
2019-02-12T20:22:48.199Z,101606.52
2019-02-12T20:23:49.011Z,101608.41
2019-02-12T20:24:49.836Z,101615.11
2019-02-12T20:25:50.656Z,101610.48
2019-02-12T20:26:51.479Z,101609.34
2019-02-12T20:27:52.336Z,101610.41
2019-02-12T20:28:53.139Z,101609.56
2019-02-12T20:29:53.963Z,101612.83
2019-02-12T20:30:54.803Z,101610.77
2019-02-12T20:31:55.624Z,101619.48
2019-02-12T20:32:56.505Z,101617.64
2019-02-12T20:33:57.359Z,101614.66
2019-02-12T20:34:58.235Z,101619.70
2019-02-12T20:35:59.655Z,101619.54
2019-02-12T20:37:00.489Z,101620.98
2019-02-12T20:38:01.442Z,101618.58
2019-02-12T20:39:02.469Z,101616.55
2019-02-12T20:40:04.983Z,101627.95
2019-02-12T20:41:05.801Z,101625.90
2019-02-12T20:42:06.612Z,101623.53
2019-02-12T20:43:07.985Z,101622.08
2019-02-12T20:44:08.810Z,101624.76
2019-02-12T20:45:10.815Z,101624.11
2019-02-12T20:46:11.639Z,101625.16
2019-02-12T20:47:12.456Z,101619.26
2019-02-12T20:48:13.319Z,101615.38
2019-02-12T20:49:14.140Z,101614.98
2019-02-12T20:50:19.318Z,101611.53
2019-02-12T20:51:20.163Z,101617.25
2019-02-12T20:52:20.986Z,101622.16
2019-02-12T20:53:21.840Z,101615.95
2019-02-12T20:54:23.055Z,101623.97
2019-02-12T20:55:23.883Z,101623.06
2019-02-12T20:56:24.739Z,101619.94
2019-02-12T20:57:25.568Z,101617.38
2019-02-12T20:58:26.425Z,101622.59
2019-02-12T20:59:27.295Z,101621.72
2019-02-12T21:00:28.063Z,101622.25
2019-02-12T21:01:28.885Z,101620.77
2019-02-12T21:02:29.695Z,101615.39
2019-02-12T21:03:30.523Z,101611.50
2019-02-12T21:04:31.385Z,101611.59
2019-02-12T21:05:32.359Z,101607.45
2019-02-12T21:06:33.284Z,101602.44
2019-02-12T21:07:34.095Z,101606.55
2019-02-12T21:08:34.912Z,101605.89
2019-02-12T21:09:35.763Z,101608.51
2019-02-12T21:10:36.584Z,101608.58
2019-02-12T21:11:37.399Z,101611.78
2019-02-12T21:12:38.224Z,101611.35
2019-02-12T21:13:39.043Z,101611.43
2019-02-12T21:14:39.903Z,101608.95
2019-02-12T21:15:40.715Z,101603.42
2019-02-12T21:16:43.471Z,101609.05
2019-02-12T21:17:44.307Z,101609.55
2019-02-12T21:18:45.117Z,101612.61
2019-02-12T21:19:45.944Z,101618.90
2019-02-12T21:20:46.798Z,101622.97
2019-02-12T21:21:47.611Z,101626.94
2019-02-12T21:22:48.524Z,101625.95
2019-02-12T21:23:49.287Z,101622.05
2019-02-12T21:24:50.101Z,101624.33
2019-02-12T21:25:50.979Z,101628.34
2019-02-12T21:26:51.807Z,101624.50
2019-02-12T21:27:52.624Z,101628.62
2019-02-12T21:28:53.450Z,101626.83
2019-02-12T21:29:54.275Z,101630.13
2019-02-12T21:30:55.145Z,101628.59
2019-02-12T21:31:55.927Z,101627.61
2019-02-12T21:32:56.739Z,101628.50
2019-02-12T21:33:57.559Z,101629.66
2019-02-12T21:34:58.424Z,101631.26
2019-02-12T21:35:59.245Z,101629.48
2019-02-12T21:37:00.080Z,101635.04
2019-02-12T21:38:01.491Z,101639.72
2019-02-12T21:39:02.907Z,101633.72
2019-02-12T21:40:05.664Z,101629.30
2019-02-12T21:41:06.483Z,101627.55
2019-02-12T21:42:07.295Z,101629.70
2019-02-12T21:43:08.124Z,101628.38
2019-02-12T21:44:08.944Z,101633.69
2019-02-12T21:45:10.287Z,101635.56
2019-02-12T21:46:11.157Z,101638.50
2019-02-12T21:47:11.930Z,101635.07
2019-02-12T21:48:12.841Z,101633.09
2019-02-12T21:49:13.847Z,101633.59
2019-02-12T21:50:14.700Z,101632.53
2019-02-12T21:51:15.527Z,101633.00
2019-02-12T21:52:16.369Z,101629.41
2019-02-12T21:53:17.183Z,101635.17
2019-02-12T21:54:18.000Z,101631.28
2019-02-12T21:55:20.359Z,101633.56
2019-02-12T21:56:21.179Z,101629.83
2019-02-12T21:57:21.999Z,101642.35
2019-02-12T21:58:22.861Z,101640.37
2019-02-12T21:59:23.675Z,101639.10
2019-02-12T22:00:24.536Z,101640.70
2019-02-12T22:01:25.356Z,101635.82
2019-02-12T22:02:27.908Z,101636.50
2019-02-12T22:03:28.721Z,101643.95
2019-02-12T22:04:34.371Z,101642.23
2019-02-12T22:05:35.228Z,101643.33
2019-02-12T22:06:37.907Z,101647.57
2019-02-12T22:07:38.726Z,101650.09
2019-02-12T22:08:39.539Z,101651.21
2019-02-12T22:09:40.351Z,101649.77
2019-02-12T22:10:46.436Z,101647.30
2019-02-12T22:11:45.224Z,101650.70
2019-02-12T22:12:46.164Z,101647.76
2019-02-12T22:13:46.958Z,101655.02
2019-02-12T22:14:47.783Z,101648.56
2019-02-12T22:15:48.643Z,101650.58
2019-02-12T22:16:49.465Z,101656.31
2019-02-12T22:17:50.288Z,101659.93
2019-02-12T22:18:52.513Z,101662.38
2019-02-12T22:19:53.329Z,101656.69
2019-02-12T22:20:54.196Z,101663.59
2019-02-12T22:21:55.007Z,101655.29
2019-02-12T22:22:55.831Z,101652.02
2019-02-12T22:23:56.644Z,101664.80
2019-02-12T22:24:57.459Z,101665.47
2019-02-12T22:25:58.287Z,101668.34
2019-02-12T22:27:00.534Z,101670.73
2019-02-12T22:28:01.351Z,101674.31
2019-02-12T22:29:02.477Z,101679.38
2019-02-12T22:30:05.167Z,101678.53
2019-02-12T22:31:05.995Z,101676.88
2019-02-12T22:32:06.820Z,101677.70
2019-02-12T22:33:07.640Z,101683.01
2019-02-12T22:34:08.465Z,101680.27
2019-02-12T22:35:09.295Z,101680.49
2019-02-12T22:36:10.120Z,101683.63
2019-02-12T22:37:10.944Z,101681.45
2019-02-12T22:38:11.807Z,101683.11
2019-02-12T22:39:12.631Z,101686.14
2019-02-12T22:40:14.255Z,101686.19
2019-02-12T22:41:15.075Z,101687.30
2019-02-12T22:42:15.892Z,101685.73
2019-02-12T22:43:16.748Z,101682.39
2019-02-12T22:44:17.572Z,101681.86
2019-02-12T22:45:23.071Z,101685.18
2019-02-12T22:46:23.891Z,101685.73
2019-02-12T22:47:24.709Z,101689.97
2019-02-12T22:48:25.552Z,101686.63
2019-02-12T22:49:26.371Z,101685.00
2019-02-12T22:50:27.196Z,101690.31
2019-02-12T22:51:28.031Z,101684.26
2019-02-12T22:52:28.851Z,101684.53
2019-02-12T22:53:29.706Z,101696.45
2019-02-12T22:54:30.520Z,101681.75
2019-02-12T22:55:31.452Z,101694.05
2019-02-12T22:56:32.574Z,101682.03
2019-02-12T22:57:33.400Z,101684.32
2019-02-12T22:58:34.261Z,101691.89
2019-02-12T22:59:35.084Z,101688.82
2019-02-12T23:00:48.247Z,101687.42
2019-02-12T23:01:49.060Z,101691.33
2019-02-12T23:02:49.888Z,101686.93
2019-02-12T23:03:50.747Z,101688.64
2019-02-12T23:04:51.579Z,101689.48
2019-02-12T23:05:52.464Z,101690.83
2019-02-12T23:06:53.596Z,101693.11
2019-02-12T23:07:54.428Z,101691.98
2019-02-12T23:08:55.383Z,101685.54
2019-02-12T23:09:56.206Z,101686.70
2019-02-12T23:10:57.023Z,101685.36
2019-02-12T23:11:57.835Z,101683.97
2019-02-12T23:12:58.655Z,101687.36
2019-02-12T23:13:59.513Z,101692.09
2019-02-12T23:15:00.332Z,101685.13
2019-02-12T23:16:01.151Z,101687.14
2019-02-12T23:17:03.346Z,101684.07
2019-02-12T23:18:04.387Z,101677.77
2019-02-12T23:19:05.242Z,101678.00
2019-02-12T23:20:06.067Z,101682.16
2019-02-12T23:21:06.887Z,101679.89
2019-02-12T23:22:08.149Z,101681.00
2019-02-12T23:23:08.915Z,101676.28
2019-02-12T23:24:09.748Z,101682.18
2019-02-12T23:25:10.729Z,101677.45
2019-02-12T23:26:11.507Z,101679.96
2019-02-12T23:27:12.331Z,101678.30
2019-02-12T23:28:13.148Z,101671.52
2019-02-12T23:29:13.960Z,101667.81
2019-02-12T23:30:14.942Z,101668.83
2019-02-12T23:31:15.771Z,101676.16
2019-02-12T23:32:16.791Z,101673.09
2019-02-12T23:33:17.619Z,101677.95
2019-02-12T23:34:18.479Z,101681.18
2019-02-12T23:35:19.295Z,101676.40
2019-02-12T23:36:20.124Z,101688.05
2019-02-12T23:37:21.035Z,101681.02
2019-02-12T23:38:21.987Z,101679.14
2019-02-12T23:39:22.842Z,101682.13
2019-02-12T23:40:23.651Z,101684.87
2019-02-12T23:41:24.470Z,101685.59
2019-02-12T23:42:25.286Z,101689.14
2019-02-12T23:43:26.103Z,101685.47
2019-02-12T23:44:27.018Z,101688.53
2019-02-12T23:45:28.180Z,101681.95
2019-02-12T23:46:28.999Z,101682.78
2019-02-12T23:47:29.816Z,101685.28
2019-02-12T23:48:30.663Z,101685.18
2019-02-12T23:49:31.482Z,101681.49
2019-02-12T23:50:32.704Z,101679.17
2019-02-12T23:51:33.516Z,101684.33
2019-02-12T23:52:34.334Z,101682.88
2019-02-12T23:53:35.198Z,101678.70
2019-02-12T23:54:36.077Z,101679.27
2019-02-12T23:55:41.498Z,101681.15
2019-02-12T23:56:42.715Z,101684.01
2019-02-12T23:57:43.536Z,101681.42
2019-02-12T23:58:44.386Z,101682.59
2019-02-12T23:59:45.199Z,101685.55
